Time;durP1;ratioP1;P1;durP2;ratioP2;P2;SDS_P1;SDS_P2;PMS_P1;PMS_P2;Temp;Humidity;BMP_temperature;BMP_pressure;BME280_temperature;BME280_humidity;BME280_pressure;Samples;Min_cycle;Max_cycle;Signal;HPM_P1;HPM_P2
2022/03/12 00:01:09;;;;;;;11.18;8.15;;;-1.60;89.90;;;;;;1902165;75;21096;-47
2022/03/12 00:03:38;;;;;;;15.20;8.83;;;-1.60;90.00;;;;;;1902102;75;21049;-47
2022/03/12 00:06:09;;;;;;;12.75;9.03;;;-1.70;90.20;;;;;;1902088;75;21031;-47
2022/03/12 00:08:44;;;;;;;13.90;7.87;;;-1.70;90.40;;;;;;1902201;74;21062;-48
2022/03/12 00:11:19;;;;;;;9.85;6.15;;;-1.60;90.40;;;;;;1902138;74;21018;-48
2022/03/12 00:13:49;;;;;;;11.07;6.90;;;-1.60;90.40;;;;;;1902312;75;21030;-47
2022/03/12 00:16:23;;;;;;;8.98;6.75;;;-1.60;90.20;;;;;;1902186;75;21054;-47
2022/03/12 00:18:55;;;;;;;20.25;11.22;;;-1.60;90.20;;;;;;1902011;75;21030;-47
2022/03/12 00:21:36;;;;;;;9.78;7.95;;;-1.50;90.20;;;;;;1900240;75;21037;-47
2022/03/12 00:24:06;;;;;;;9.13;6.72;;;-1.60;90.00;;;;;;1902204;75;21002;-47
2022/03/12 00:26:39;;;;;;;12.25;8.88;;;-1.60;89.80;;;;;;1902149;75;21042;-49
2022/03/12 00:29:14;;;;;;;15.08;12.30;;;-1.60;90.00;;;;;;1901982;75;21473;-48
2022/03/12 00:31:37;;;;;;;16.97;10.53;;;-1.70;89.60;;;;;;1901069;74;21034;-48
2022/03/12 00:34:07;;;;;;;14.43;9.05;;;-1.70;90.00;;;;;;1901979;75;21022;-48
2022/03/12 00:36:36;;;;;;;6.67;5.45;;;-1.80;90.00;;;;;;1902076;74;21042;-48
2022/03/12 00:39:09;;;;;;;7.47;5.10;;;-1.80;90.10;;;;;;1905451;73;21124;-48
2022/03/12 00:41:39;;;;;;;6.90;5.92;;;-1.80;89.80;;;;;;1921522;75;21187;-48
2022/03/12 00:44:09;;;;;;;8.70;5.35;;;-1.90;89.90;;;;;;1921468;75;21065;-46
2022/03/12 00:46:39;;;;;;;15.43;9.93;;;-1.90;90.10;;;;;;1921387;75;21080;-47
2022/03/12 00:49:08;;;;;;;6.22;4.58;;;-1.90;90.10;;;;;;1921435;75;21064;-48
2022/03/12 00:51:44;;;;;;;12.00;8.48;;;-2.00;90.00;;;;;;1921385;75;21026;-47
2022/03/12 00:54:09;;;;;;;16.73;10.10;;;-1.90;90.00;;;;;;1919363;75;21483;-47
2022/03/12 00:56:39;;;;;;;11.20;8.23;;;-2.00;90.10;;;;;;1921344;73;21143;-48
2022/03/12 00:59:09;;;;;;;17.55;9.70;;;-2.00;90.10;;;;;;1921512;75;21624;-48
2022/03/12 01:01:38;;;;;;;9.65;6.35;;;-2.00;90.20;;;;;;1921357;75;21096;-47
2022/03/12 01:04:08;;;;;;;14.70;8.60;;;-2.00;90.20;;;;;;1921424;75;21026;-48
2022/03/12 01:06:37;;;;;;;13.18;10.20;;;-1.90;90.30;;;;;;1921491;75;21091;-48
2022/03/12 01:09:07;;;;;;;16.57;11.30;;;-1.90;90.30;;;;;;1921474;75;21014;-47
2022/03/12 01:11:38;;;;;;;17.55;11.55;;;-1.80;90.30;;;;;;1921379;75;21085;-49
2022/03/12 01:14:08;;;;;;;17.30;10.03;;;-1.80;90.30;;;;;;1921411;75;21542;-47
2022/03/12 01:16:38;;;;;;;6.55;5.08;;;-1.70;90.30;;;;;;1921362;73;21025;-48
2022/03/12 01:19:07;;;;;;;18.00;10.75;;;-1.60;89.70;;;;;;1921386;73;21021;-48
2022/03/12 01:21:38;;;;;;;11.20;6.85;;;-1.70;89.60;;;;;;1921482;75;21014;-47
2022/03/12 01:24:07;;;;;;;12.30;8.75;;;-1.70;88.60;;;;;;1921472;75;21025;-47
2022/03/12 01:26:39;;;;;;;12.47;7.70;;;-1.80;88.10;;;;;;1921390;75;21017;-47
2022/03/12 01:29:10;;;;;;;12.35;9.65;;;-1.90;88.30;;;;;;1921405;75;21053;-48
2022/03/12 01:31:40;;;;;;;5.75;4.35;;;-2.00;88.50;;;;;;1921755;75;21049;-48
2022/03/12 01:34:10;;;;;;;10.00;7.55;;;-2.10;88.80;;;;;;1921285;75;21001;-48
2022/03/12 01:36:39;;;;;;;6.42;5.80;;;-2.10;88.80;;;;;;1921438;75;21135;-48
2022/03/12 01:39:09;;;;;;;10.93;7.83;;;-2.10;88.90;;;;;;1921464;74;21025;-49
2022/03/12 01:41:40;;;;;;;9.80;5.70;;;-2.10;89.40;;;;;;1921431;74;21123;-47
2022/03/12 01:44:10;;;;;;;4.70;4.28;;;-2.10;89.30;;;;;;1921297;74;21535;-47
2022/03/12 01:46:42;;;;;;;13.05;8.85;;;-2.00;88.90;;;;;;1921459;75;21077;-47
2022/03/12 01:49:18;;;;;;;7.60;6.65;;;-2.00;89.20;;;;;;1921319;75;21013;-47
2022/03/12 01:51:49;;;;;;;13.35;7.92;;;-2.00;88.90;;;;;;1921392;73;21017;-47
2022/03/12 01:54:21;;;;;;;12.05;10.00;;;-2.00;88.60;;;;;;1921386;75;21029;-49
2022/03/12 01:56:51;;;;;;;12.23;8.90;;;-2.10;89.10;;;;;;1921334;75;21018;-48
2022/03/12 01:59:21;;;;;;;5.80;4.47;;;-2.00;89.50;;;;;;1921418;74;21030;-49
2022/03/12 02:01:56;;;;;;;18.05;10.35;;;-2.00;89.50;;;;;;1921368;75;21091;-47
2022/03/12 02:04:22;;;;;;;9.80;7.25;;;-2.00;89.60;;;;;;1919567;75;21123;-48
2022/03/12 02:06:52;;;;;;;12.70;8.23;;;-1.90;89.40;;;;;;1921433;73;20998;-47
2022/03/12 02:09:22;;;;;;;17.25;11.88;;;-1.90;89.30;;;;;;1921319;74;21005;-47
2022/03/12 02:11:52;;;;;;;7.35;5.28;;;-1.90;88.80;;;;;;1921463;75;21038;-47
2022/03/12 02:14:25;;;;;;;8.88;5.60;;;-2.00;88.00;;;;;;1921381;73;21026;-48
2022/03/12 02:16:59;;;;;;;;;;;-2.00;88.60;;;;;;1924365;75;21097;-48
2022/03/12 02:19:31;;;;;;;11.90;8.88;;;-2.00;88.60;;;;;;1921451;75;20168;-47
2022/03/12 02:22:12;;;;;;;17.45;10.85;;;-2.00;89.20;;;;;;1921543;74;21104;-47
2022/03/12 02:24:42;;;;;;;6.40;4.55;;;-2.00;89.00;;;;;;1921392;73;21021;-48
2022/03/12 02:27:12;;;;;;;9.25;7.20;;;-1.90;89.00;;;;;;1921487;75;21005;-49
2022/03/12 02:29:42;;;;;;;15.38;9.33;;;-2.00;88.30;;;;;;1921452;75;20998;-48
2022/03/12 02:32:13;;;;;;;11.00;7.22;;;-2.00;88.60;;;;;;1921649;73;21361;-49
2022/03/12 02:34:50;;;;;;;10.18;4.72;;;-2.00;88.40;;;;;;1921355;75;21030;-49
2022/03/12 02:37:33;;;;;;;8.70;6.58;;;-2.00;88.30;;;;;;1921582;75;21552;-48
2022/03/12 02:40:07;;;;;;;10.63;7.83;;;-2.00;87.30;;;;;;1921358;74;21103;-47
2022/03/12 02:42:39;;;;;;;;;;;-2.10;88.50;;;;;;1924317;75;21029;-48
2022/03/12 02:45:09;;;;;;;9.58;6.53;;;-2.10;87.90;;;;;;1921310;73;20159;-49
2022/03/12 02:47:43;;;;;;;12.37;6.92;;;-2.10;88.60;;;;;;1921486;75;21017;-48
2022/03/12 02:50:14;;;;;;;14.33;10.68;;;-2.10;88.40;;;;;;1921659;73;21014;-49
2022/03/12 02:52:45;;;;;;;13.38;8.85;;;-2.00;88.90;;;;;;1921587;75;21010;-47
2022/03/12 02:55:23;;;;;;;16.45;10.82;;;-2.00;89.00;;;;;;1921417;75;21087;-47
2022/03/12 02:57:53;;;;;;;10.72;6.20;;;-2.00;88.80;;;;;;1921448;74;21089;-49
2022/03/12 03:00:23;;;;;;;18.15;10.45;;;-1.90;88.00;;;;;;1921439;75;21046;-48
2022/03/12 03:02:57;;;;;;;7.80;6.45;;;-2.00;87.30;;;;;;1921431;74;21095;-48
2022/03/12 03:08:11;;;;;;;12.65;9.05;;;-2.10;87.90;;;;;;1921515;75;21053;-47
2022/03/12 03:10:41;;;;;;;7.33;6.12;;;-2.10;87.70;;;;;;1921685;74;21601;-47
2022/03/12 03:13:22;;;;;;;18.07;11.08;;;-2.20;87.70;;;;;;1921453;75;21029;-47
2022/03/12 03:16:00;;;;;;;14.15;9.43;;;-2.20;88.20;;;;;;1921498;75;20998;-48
2022/03/12 03:18:34;;;;;;;13.40;8.85;;;-2.20;87.70;;;;;;1921547;73;21026;-49
2022/03/12 03:21:04;;;;;;;11.95;8.18;;;-2.20;87.80;;;;;;1921668;75;21069;-47
2022/03/12 03:23:35;;;;;;;5.83;4.80;;;-2.20;88.30;;;;;;1921626;73;21530;-47
2022/03/12 03:26:05;;;;;;;10.15;7.25;;;-2.20;88.00;;;;;;1921392;75;21022;-48
2022/03/12 03:28:34;;;;;;;12.95;8.38;;;-2.30;88.20;;;;;;1921557;75;21026;-47
2022/03/12 03:31:08;;;;;;;15.98;11.12;;;-2.20;88.70;;;;;;1921402;75;21081;-47
2022/03/12 03:33:37;;;;;;;14.10;9.80;;;-2.20;89.00;;;;;;1921423;75;21053;-47
2022/03/12 03:36:07;;;;;;;10.00;6.58;;;-2.10;89.10;;;;;;1921476;75;21021;-47
2022/03/12 03:38:37;;;;;;;15.78;10.35;;;-2.00;88.90;;;;;;1921448;75;21025;-48
2022/03/12 03:41:07;;;;;;;13.93;9.70;;;-1.90;88.80;;;;;;1921430;74;21062;-48
2022/03/12 03:43:37;;;;;;;14.25;9.68;;;-1.80;88.70;;;;;;1921572;75;21022;-47
2022/03/12 03:46:06;;;;;;;15.20;9.78;;;-1.80;88.60;;;;;;1921430;75;21025;-48
2022/03/12 03:48:43;;;;;;;9.10;6.87;;;-1.70;88.80;;;;;;1921524;73;21084;-47
2022/03/12 03:51:08;;;;;;;16.82;11.60;;;-1.70;87.70;;;;;;1919648;75;21022;-47
2022/03/12 03:53:38;;;;;;;8.60;5.50;;;-1.70;87.70;;;;;;1921484;75;21083;-49
2022/03/12 03:56:07;;;;;;;15.70;9.68;;;-1.80;87.60;;;;;;1921506;75;21079;-48
2022/03/12 03:58:37;;;;;;;8.30;6.60;;;-1.80;87.60;;;;;;1921417;75;21017;-47
2022/03/12 04:01:12;;;;;;;13.75;8.15;;;-1.80;87.50;;;;;;1921021;75;21057;-47
2022/03/12 04:03:52;;;;;;;13.03;9.00;;;-1.80;87.90;;;;;;1921663;74;21034;-47
2022/03/12 04:06:15;;;;;;;16.55;10.03;;;-1.90;87.40;;;;;;1916723;73;21026;-48
2022/03/12 04:08:44;;;;;;;11.68;8.03;;;-1.90;88.30;;;;;;1921443;75;21099;-47
2022/03/12 04:11:19;;;;;;;10.72;7.03;;;-1.80;87.90;;;;;;1921381;75;21045;-47
2022/03/12 04:13:49;;;;;;;15.23;9.80;;;-1.80;87.40;;;;;;1921503;75;21029;-48
2022/03/12 04:16:20;;;;;;;13.00;8.13;;;-1.80;87.30;;;;;;1921541;74;21084;-47
2022/03/12 04:18:50;;;;;;;11.22;7.70;;;-1.90;87.40;;;;;;1921343;75;21025;-47
2022/03/12 04:21:23;;;;;;;9.33;5.65;;;-1.90;87.60;;;;;;1921492;75;21448;-47
2022/03/12 04:23:53;;;;;;;17.48;11.53;;;-1.90;87.60;;;;;;1921361;74;21549;-47
2022/03/12 04:26:23;;;;;;;12.58;9.33;;;-1.90;88.40;;;;;;1921496;73;21072;-48
2022/03/12 04:28:52;;;;;;;12.00;7.97;;;-1.80;88.10;;;;;;1921494;75;21083;-47
2022/03/12 04:31:21;;;;;;;14.80;10.18;;;-1.70;87.40;;;;;;1921351;74;21026;-47
2022/03/12 04:33:51;;;;;;;13.13;9.23;;;-1.70;87.00;;;;;;1921317;74;21154;-48
2022/03/12 04:36:20;;;;;;;4.67;4.10;;;-1.70;87.40;;;;;;1921354;75;21002;-48
2022/03/12 04:38:49;;;;;;;13.43;8.68;;;-1.70;86.70;;;;;;1921493;75;21022;-47
2022/03/12 04:41:20;;;;;;;9.13;6.92;;;-1.70;86.30;;;;;;1921450;74;21033;-48
2022/03/12 04:43:51;;;;;;;13.25;9.53;;;-1.80;85.40;;;;;;1921397;75;21037;-49
2022/03/12 04:46:20;;;;;;;7.85;5.67;;;-1.80;86.60;;;;;;1921384;75;21049;-50
2022/03/12 04:48:50;;;;;;;11.90;8.23;;;-1.80;85.90;;;;;;1921484;75;21076;-47
2022/03/12 04:51:19;;;;;;;18.07;11.55;;;-1.80;85.90;;;;;;1921432;75;21022;-48
2022/03/12 04:53:49;;;;;;;18.17;11.85;;;-1.80;86.90;;;;;;1921367;73;21124;-49
2022/03/12 04:56:18;;;;;;;8.08;6.33;;;-1.80;86.50;;;;;;1921354;73;20998;-47
2022/03/12 04:58:48;;;;;;;13.43;9.75;;;-1.70;86.70;;;;;;1921396;75;21034;-48
2022/03/12 05:01:17;;;;;;;11.93;9.53;;;-1.70;86.20;;;;;;1921520;75;21017;-49
2022/03/12 05:03:47;;;;;;;15.28;9.73;;;-1.60;86.70;;;;;;1921356;75;21075;-47
2022/03/12 05:06:19;;;;;;;13.78;8.63;;;-1.60;85.70;;;;;;1921642;75;21432;-47
2022/03/12 05:08:48;;;;;;;12.95;7.87;;;-1.60;84.80;;;;;;1921437;75;21099;-48
2022/03/12 05:11:18;;;;;;;15.75;9.25;;;-1.70;86.10;;;;;;1921485;75;21021;-48
2022/03/12 05:13:49;;;;;;;13.88;8.90;;;-1.60;85.30;;;;;;1921537;75;21088;-47
2022/03/12 05:16:21;;;;;;;10.40;6.25;;;-1.60;85.50;;;;;;1921328;74;21042;-49
2022/03/12 05:18:49;;;;;;;10.48;6.83;;;-1.60;84.20;;;;;;1921285;75;21022;-48
2022/03/12 05:21:19;;;;;;;19.23;9.25;;;-1.60;84.30;;;;;;1921457;75;21037;-48
2022/03/12 05:23:48;;;;;;;11.95;9.03;;;-1.60;85.10;;;;;;1921510;73;21002;-48
2022/03/12 05:26:18;;;;;;;20.45;11.53;;;-1.60;85.30;;;;;;1921481;74;21087;-48
2022/03/12 05:28:47;;;;;;;6.92;5.15;;;-1.50;86.30;;;;;;1921348;75;21002;-48
2022/03/12 05:31:17;;;;;;;11.03;6.42;;;-1.40;84.20;;;;;;1921335;75;21088;-47
2022/03/12 05:33:46;;;;;;;18.25;8.65;;;-1.40;83.60;;;;;;1921285;74;21100;-47
2022/03/12 05:36:15;;;;;;;10.05;7.12;;;-1.40;84.60;;;;;;1921478;75;21095;-47
2022/03/12 05:38:45;;;;;;;10.45;7.37;;;-1.30;84.60;;;;;;1921543;73;21022;-48
2022/03/12 05:41:15;;;;;;;12.63;8.73;;;-1.40;83.40;;;;;;1921357;75;20997;-48
2022/03/12 05:43:46;;;;;;;9.58;7.70;;;-1.40;83.20;;;;;;1921299;73;21045;-48
2022/03/12 05:46:17;;;;;;;11.50;6.72;;;-1.40;83.30;;;;;;1921413;75;21096;-47
2022/03/12 05:48:47;;;;;;;9.15;4.87;;;-1.40;83.60;;;;;;1921499;75;21042;-47
2022/03/12 05:51:18;;;;;;;8.50;4.35;;;-1.30;83.00;;;;;;1921403;75;21025;-48
2022/03/12 05:53:49;;;;;;;7.87;6.97;;;-1.30;82.00;;;;;;1921498;75;21087;-47
2022/03/12 05:56:18;;;;;;;11.93;7.97;;;-1.40;82.30;;;;;;1921598;73;21018;-48
2022/03/12 05:58:47;;;;;;;10.15;5.92;;;-1.30;83.50;;;;;;1921520;74;21025;-48
2022/03/12 06:01:16;;;;;;;12.47;9.00;;;-1.30;82.20;;;;;;1921468;75;21095;-49
2022/03/12 06:03:46;;;;;;;10.68;7.70;;;-1.30;83.50;;;;;;1921518;75;21022;-49
2022/03/12 06:06:15;;;;;;;14.73;9.70;;;-1.20;83.00;;;;;;1921585;75;21107;-47
2022/03/12 06:08:45;;;;;;;3.42;2.95;;;-1.20;82.80;;;;;;1921429;75;21049;-48
2022/03/12 06:11:15;;;;;;;11.63;7.70;;;-1.20;82.50;;;;;;1921520;75;21026;-50
2022/03/12 06:13:50;;;;;;;13.98;9.10;;;-1.20;83.50;;;;;;1921325;74;21030;-48
2022/03/12 06:16:16;;;;;;;11.85;8.68;;;-1.10;84.40;;;;;;1920701;75;21178;-48
2022/03/12 06:18:45;;;;;;;15.63;9.83;;;-0.90;83.80;;;;;;1921383;73;21064;-48
2022/03/12 06:21:15;;;;;;;15.58;10.00;;;-0.90;82.60;;;;;;1921555;75;21042;-48
2022/03/12 06:23:45;;;;;;;11.95;6.97;;;-0.80;83.60;;;;;;1921507;75;21091;-48
2022/03/12 06:26:23;;;;;;;14.13;10.72;;;-0.80;83.50;;;;;;1921576;75;21088;-48
2022/03/12 06:28:48;;;;;;;6.93;5.97;;;-0.70;84.30;;;;;;1920701;75;21038;-47
2022/03/12 06:31:19;;;;;;;8.33;5.97;;;-0.60;82.20;;;;;;1921447;75;21100;-48
2022/03/12 06:33:49;;;;;;;12.28;7.85;;;-0.60;82.90;;;;;;1921422;75;21022;-49
2022/03/12 06:36:19;;;;;;;13.55;9.08;;;-0.70;82.20;;;;;;1921517;75;21029;-48
2022/03/12 06:38:49;;;;;;;12.80;8.75;;;-0.70;82.50;;;;;;1921517;75;21025;-48
2022/03/12 06:41:20;;;;;;;15.05;10.68;;;-0.80;82.70;;;;;;1921570;75;21091;-47
2022/03/12 06:43:50;;;;;;;9.55;5.70;;;-0.80;83.30;;;;;;1921431;74;21049;-47
2022/03/12 06:46:20;;;;;;;11.57;8.50;;;-0.80;81.70;;;;;;1921685;75;21037;-47
2022/03/12 06:48:50;;;;;;;14.13;9.28;;;-0.80;82.50;;;;;;1921489;73;21075;-48
2022/03/12 06:51:19;;;;;;;11.90;6.72;;;-0.80;82.10;;;;;;1921412;75;21029;-49
2022/03/12 06:53:49;;;;;;;12.70;7.65;;;-0.70;81.80;;;;;;1921480;75;21096;-49
2022/03/12 06:56:18;;;;;;;11.50;7.87;;;-0.70;81.00;;;;;;1921433;75;21001;-49
2022/03/12 06:58:48;;;;;;;12.47;9.10;;;-0.70;81.90;;;;;;1921484;75;21069;-49
2022/03/12 07:01:17;;;;;;;16.67;9.33;;;-0.70;82.30;;;;;;1921405;75;21084;-48
2022/03/12 07:03:46;;;;;;;8.70;6.55;;;-0.70;82.30;;;;;;1921369;75;21022;-48
2022/03/12 07:06:16;;;;;;;9.70;8.03;;;-0.60;83.40;;;;;;1921596;75;21022;-48
2022/03/12 07:08:46;;;;;;;12.85;9.50;;;-0.50;82.10;;;;;;1921392;75;21005;-49
2022/03/12 07:11:16;;;;;;;14.70;10.35;;;-0.30;83.60;;;;;;1921471;75;21091;-48
2022/03/12 07:13:45;;;;;;;13.13;7.70;;;-0.20;82.00;;;;;;1921347;74;21013;-47
2022/03/12 07:16:14;;;;;;;15.50;9.35;;;-0.10;81.30;;;;;;1921562;75;21456;-49
2022/03/12 07:18:43;;;;;;;10.32;6.20;;;0.00;81.60;;;;;;1921382;75;20993;-48
2022/03/12 07:21:13;;;;;;;13.18;8.15;;;0.00;79.50;;;;;;1921430;74;21081;-48
2022/03/12 07:23:42;;;;;;;15.35;9.48;;;0.00;80.00;;;;;;1921389;75;21154;-48
2022/03/12 07:26:11;;;;;;;10.20;7.22;;;-0.10;78.10;;;;;;1921481;75;21103;-48
2022/03/12 07:28:40;;;;;;;14.58;9.25;;;-0.20;79.40;;;;;;1921382;74;21468;-48
2022/03/12 07:31:10;;;;;;;17.60;9.33;;;-0.20;79.30;;;;;;1921677;75;21053;-48
2022/03/12 07:33:39;;;;;;;11.78;7.75;;;-0.20;80.00;;;;;;1921455;75;21016;-49
2022/03/12 07:36:11;;;;;;;11.70;6.92;;;-0.10;80.90;;;;;;1921541;75;21041;-48
2022/03/12 07:38:40;;;;;;;12.53;7.67;;;0.10;80.00;;;;;;1921459;75;21087;-48
2022/03/12 07:41:09;;;;;;;10.95;7.95;;;0.20;79.00;;;;;;1921543;73;21033;-49
2022/03/12 07:43:45;;;;;;;13.78;9.28;;;0.20;79.70;;;;;;1915892;73;21054;-48
2022/03/12 07:46:17;;;;;;;15.25;10.70;;;0.30;78.50;;;;;;1899250;75;21022;-48
2022/03/12 07:48:46;;;;;;;5.08;3.85;;;0.40;79.00;;;;;;1902181;75;21002;-48
2022/03/12 07:51:16;;;;;;;11.48;8.55;;;0.40;76.60;;;;;;1902102;75;21092;-50
2022/03/12 07:53:45;;;;;;;19.62;7.22;;;0.40;77.00;;;;;;1902148;75;21073;-48
2022/03/12 07:56:16;;;;;;;15.05;9.93;;;0.40;76.80;;;;;;1902390;75;21003;-48
2022/03/12 07:58:46;;;;;;;8.10;6.00;;;0.60;78.10;;;;;;1902310;75;21042;-48
2022/03/12 08:01:16;;;;;;;16.02;10.72;;;0.80;77.70;;;;;;1902182;75;21027;-47
2022/03/12 08:03:45;;;;;;;10.18;7.03;;;0.90;77.50;;;;;;1902105;75;21030;-50
2022/03/12 08:06:16;;;;;;;10.93;8.68;;;1.10;76.20;;;;;;1902297;75;21092;-48
2022/03/12 08:08:45;;;;;;;13.75;10.30;;;1.10;76.80;;;;;;1902104;75;21421;-49
2022/03/12 08:11:32;;;;;;;14.50;9.48;;;1.20;78.10;;;;;;1902183;75;21026;-48
2022/03/12 08:14:02;;;;;;;13.55;9.75;;;1.30;75.60;;;;;;1900640;75;21103;-49
2022/03/12 08:16:35;;;;;;;8.83;7.20;;;1.40;77.20;;;;;;1902093;75;21084;-47
2022/03/12 08:19:08;;;;;;;5.97;4.33;;;1.50;76.00;;;;;;1902106;75;21018;-48
2022/03/12 08:21:37;;;;;;;10.78;6.83;;;1.50;72.50;;;;;;1902207;75;21027;-48
2022/03/12 08:24:09;;;;;;;11.12;6.42;;;1.40;70.70;;;;;;1902028;75;21042;-48
2022/03/12 08:26:41;;;;;;;10.68;7.42;;;1.10;72.00;;;;;;1902153;74;21035;-47
2022/03/12 08:29:10;;;;;;;14.43;9.45;;;0.90;73.50;;;;;;1902024;75;21461;-47
2022/03/12 08:31:41;;;;;;;12.35;9.28;;;0.90;74.70;;;;;;1902089;75;21022;-49
2022/03/12 08:34:11;;;;;;;14.60;10.23;;;0.90;76.00;;;;;;1902110;75;21022;-47
2022/03/12 08:36:42;;;;;;;16.07;9.93;;;1.10;76.80;;;;;;1902171;75;21018;-47
2022/03/12 08:39:11;;;;;;;5.65;4.30;;;1.10;73.50;;;;;;1901972;75;21076;-48
2022/03/12 08:41:40;;;;;;;16.23;10.23;;;1.20;73.10;;;;;;1902027;75;21030;-49
2022/03/12 08:44:11;;;;;;;13.20;8.95;;;1.20;75.70;;;;;;1907559;74;21033;-48
2022/03/12 08:46:42;;;;;;;10.72;7.70;;;1.10;74.20;;;;;;1924637;74;21079;-47
2022/03/12 08:49:12;;;;;;;9.83;7.45;;;1.10;74.70;;;;;;1924680;74;21085;-48
2022/03/12 08:51:42;;;;;;;17.00;10.08;;;1.20;75.30;;;;;;1924532;74;21087;-47
2022/03/12 08:54:11;;;;;;;10.40;6.08;;;1.30;75.20;;;;;;1924651;74;21088;-48
2022/03/12 08:56:41;;;;;;;9.90;7.85;;;1.30;74.90;;;;;;1924579;74;21022;-48
2022/03/12 08:59:10;;;;;;;15.50;8.08;;;1.20;74.20;;;;;;1924586;73;21021;-48
2022/03/12 09:01:43;;;;;;;9.20;6.00;;;1.20;74.10;;;;;;1924561;74;21112;-47
2022/03/12 09:04:11;;;;;;;13.22;7.00;;;1.10;73.80;;;;;;1924407;73;21104;-48
2022/03/12 09:06:42;;;;;;;14.83;9.15;;;1.10;74.70;;;;;;1924675;74;21021;-47
2022/03/12 09:09:12;;;;;;;12.28;6.95;;;1.10;74.80;;;;;;1924540;73;21029;-50
2022/03/12 09:11:41;;;;;;;12.95;8.75;;;1.20;76.40;;;;;;1924557;74;21025;-49
2022/03/12 09:14:11;;;;;;;12.90;9.73;;;1.30;75.30;;;;;;1924628;74;21033;-48
2022/03/12 09:16:41;;;;;;;10.60;8.53;;;1.30;74.10;;;;;;1924637;74;21021;-48
2022/03/12 09:19:10;;;;;;;13.30;8.33;;;1.30;74.40;;;;;;1924595;73;21099;-48
2022/03/12 09:21:42;;;;;;;10.25;8.70;;;1.30;73.40;;;;;;1924722;74;20997;-48
2022/03/12 09:24:11;;;;;;;6.67;5.08;;;1.20;73.20;;;;;;1924732;74;21029;-48
2022/03/12 09:26:41;;;;;;;12.47;7.85;;;1.10;72.50;;;;;;1924623;73;21016;-49
2022/03/12 09:29:10;;;;;;;11.48;7.90;;;1.00;73.00;;;;;;1924517;74;21083;-48
2022/03/12 09:31:40;;;;;;;14.85;10.43;;;0.90;73.60;;;;;;1924566;74;21017;-48
2022/03/12 09:34:10;;;;;;;14.63;10.05;;;1.00;74.90;;;;;;1924534;74;21109;-48
2022/03/12 09:36:40;;;;;;;6.12;4.97;;;1.00;75.70;;;;;;1924543;73;21025;-48
2022/03/12 09:39:09;;;;;;;15.35;9.20;;;1.10;72.60;;;;;;1924607;73;21018;-46
2022/03/12 09:41:40;;;;;;;12.00;8.50;;;1.10;74.80;;;;;;1924497;74;21006;-48
2022/03/12 09:44:10;;;;;;;14.15;8.80;;;1.20;75.40;;;;;;1924656;74;21128;-47
2022/03/12 09:46:39;;;;;;;8.35;5.83;;;1.20;73.80;;;;;;1924558;74;21079;-47
2022/03/12 09:49:11;;;;;;;15.05;10.23;;;1.30;73.40;;;;;;1924664;74;21026;-48
2022/03/12 09:51:39;;;;;;;15.70;11.18;;;1.30;74.50;;;;;;1924523;74;21499;-47
2022/03/12 09:54:11;;;;;;;11.63;9.00;;;1.40;73.60;;;;;;1924220;74;21065;-48
2022/03/12 09:56:40;;;;;;;12.73;8.78;;;1.50;75.80;;;;;;1924683;74;21029;-47
2022/03/12 09:59:10;;;;;;;14.58;9.48;;;1.60;75.80;;;;;;1924746;73;21021;-49
2022/03/12 10:01:39;;;;;;;12.68;9.23;;;1.80;75.50;;;;;;1924548;74;21464;-48
2022/03/12 10:04:08;;;;;;;11.03;6.00;;;1.90;74.90;;;;;;1924625;74;21080;-48
2022/03/12 10:06:40;;;;;;;14.15;9.53;;;2.00;72.70;;;;;;1924597;73;21025;-48
2022/03/12 10:09:10;;;;;;;11.88;7.33;;;1.90;72.50;;;;;;1924615;73;21057;-48
2022/03/12 10:11:41;;;;;;;13.68;9.88;;;1.80;72.80;;;;;;1924714;74;21006;-48
2022/03/12 10:14:11;;;;;;;9.38;6.85;;;1.80;74.70;;;;;;1924582;74;21073;-48
2022/03/12 10:16:42;;;;;;;11.33;8.55;;;1.80;73.30;;;;;;1924432;73;21065;-48
2022/03/12 10:19:12;;;;;;;8.78;7.85;;;1.90;73.30;;;;;;1924380;74;21001;-48
2022/03/12 10:21:46;;;;;;;11.53;8.95;;;1.80;71.30;;;;;;1924577;74;21095;-48
2022/03/12 10:24:12;;;;;;;12.35;8.38;;;1.70;73.70;;;;;;1923253;73;21049;-48
2022/03/12 10:26:42;;;;;;;15.03;9.48;;;1.70;75.20;;;;;;1924676;74;21021;-49
2022/03/12 10:29:11;;;;;;;12.18;9.80;;;1.90;75.00;;;;;;1924500;74;21030;-48
2022/03/12 10:31:41;;;;;;;13.03;8.98;;;2.10;74.50;;;;;;1924583;74;21086;-48
2022/03/12 10:34:25;;;;;;;10.78;8.08;;;2.20;75.00;;;;;;1924731;74;21021;-48
2022/03/12 10:37:01;;;;;;;14.28;10.05;;;2.40;73.10;;;;;;1924660;74;21130;-47
2022/03/12 10:39:36;;;;;;;11.60;8.20;;;2.40;72.90;;;;;;1923122;74;21111;-48
2022/03/12 10:42:08;;;;;;;11.38;7.87;;;2.30;71.60;;;;;;1924720;74;21053;-48
2022/03/12 10:44:39;;;;;;;19.75;8.68;;;2.10;72.90;;;;;;1924615;74;21091;-49
2022/03/12 10:47:19;;;;;;;13.50;9.73;;;2.10;74.20;;;;;;1924760;74;21057;-48
2022/03/12 10:50:00;;;;;;;11.28;8.93;;;2.10;74.30;;;;;;1924663;74;21022;-49
2022/03/12 10:52:32;;;;;;;13.95;8.85;;;2.10;74.90;;;;;;1924622;74;21037;-48
2022/03/12 10:55:03;;;;;;;10.43;8.98;;;2.20;74.00;;;;;;1924735;74;21065;-48
2022/03/12 10:57:32;;;;;;;11.53;9.13;;;2.30;73.80;;;;;;1923329;73;21558;-47
2022/03/12 11:00:02;;;;;;;14.83;9.68;;;2.40;75.00;;;;;;1924655;74;21018;-47
2022/03/12 11:02:32;;;;;;;12.53;8.73;;;2.50;74.00;;;;;;1924761;73;21025;-47
2022/03/12 11:05:03;;;;;;;13.88;10.30;;;2.50;72.40;;;;;;1924663;73;21068;-48
2022/03/12 11:07:33;;;;;;;15.40;10.72;;;2.40;74.10;;;;;;1924719;74;21491;-47
2022/03/12 11:10:03;;;;;;;16.75;10.82;;;2.40;74.60;;;;;;1924610;74;21002;-48
2022/03/12 11:12:35;;;;;;;13.65;9.43;;;2.50;74.10;;;;;;1924689;73;21049;-48
2022/03/12 11:15:15;;;;;;;12.75;9.05;;;2.50;74.30;;;;;;1924844;74;21119;-50
2022/03/12 11:17:52;;;;;;;20.57;11.12;;;2.50;73.40;;;;;;1924667;74;21130;-48
2022/03/12 11:20:28;;;;;;;17.60;10.70;;;2.50;73.90;;;;;;1924585;74;21046;-48
2022/03/12 11:23:12;;;;;;;13.43;10.05;;;2.40;72.30;;;;;;1924616;74;21033;-47
2022/03/12 11:25:56;;;;;;;12.60;9.38;;;2.30;73.50;;;;;;1924712;74;21092;-47
2022/03/12 11:28:28;;;;;;;12.70;9.80;;;2.30;73.60;;;;;;1924573;74;21064;-48
2022/03/12 11:30:57;;;;;;;21.27;9.15;;;2.30;73.90;;;;;;1924778;74;21440;-48
2022/03/12 11:33:28;;;;;;;12.20;9.33;;;2.30;74.00;;;;;;1924627;74;21025;-48
2022/03/12 11:36:02;;;;;;;15.05;9.43;;;2.30;72.80;;;;;;1924765;74;21049;-51
2022/03/12 11:38:32;;;;;;;13.62;8.50;;;2.30;73.70;;;;;;1924707;74;21029;-48
2022/03/12 11:41:13;;;;;;;12.00;9.00;;;2.30;74.70;;;;;;1924668;74;21025;-48
2022/03/12 11:43:43;;;;;;;11.83;8.93;;;2.30;74.70;;;;;;1921511;74;21061;-48
2022/03/12 11:46:13;;;;;;;13.40;9.78;;;2.40;73.20;;;;;;1924526;74;21123;-48
2022/03/12 11:48:44;;;;;;;15.30;9.08;;;2.40;74.10;;;;;;1924632;74;21037;-51
2022/03/12 11:51:25;;;;;;;13.35;8.48;;;2.40;74.80;;;;;;1924664;74;21091;-47
2022/03/12 11:53:55;;;;;;;16.27;9.58;;;2.50;72.30;;;;;;1924483;74;21060;-47
2022/03/12 11:56:26;;;;;;;11.30;9.08;;;2.40;73.80;;;;;;1924648;74;21041;-47
2022/03/12 11:58:56;;;;;;;13.28;9.00;;;2.40;71.80;;;;;;1924521;74;21104;-49
2022/03/12 12:01:25;;;;;;;16.02;10.55;;;2.30;72.40;;;;;;1924603;73;21049;-48
2022/03/12 12:03:56;;;;;;;9.78;8.03;;;2.20;72.60;;;;;;1924688;73;21069;-47
2022/03/12 12:06:26;;;;;;;12.05;8.48;;;2.20;71.80;;;;;;1924544;74;21060;-48
2022/03/12 12:08:56;;;;;;;14.28;9.48;;;2.20;71.10;;;;;;1924556;74;21131;-48
2022/03/12 12:11:26;;;;;;;10.20;6.78;;;2.20;72.50;;;;;;1924739;73;21561;-48
2022/03/12 12:13:56;;;;;;;15.43;9.50;;;2.30;72.60;;;;;;1924542;74;21069;-48
2022/03/12 12:16:29;;;;;;;11.83;9.03;;;2.40;73.80;;;;;;1924589;74;21158;-47
2022/03/12 12:18:56;;;;;;;10.25;8.13;;;2.50;73.20;;;;;;1924504;74;21091;-48
2022/03/12 12:21:26;;;;;;;12.00;10.03;;;2.50;71.40;;;;;;1924551;74;21038;-49
2022/03/12 12:23:59;;;;;;;15.95;10.18;;;2.50;73.50;;;;;;1924511;74;21122;-48
2022/03/12 12:26:28;;;;;;;12.73;9.68;;;2.50;72.50;;;;;;1924695;74;21042;-48
2022/03/12 12:28:58;;;;;;;10.10;7.25;;;2.50;72.50;;;;;;1924593;74;21022;-49
2022/03/12 12:31:28;;;;;;;13.90;8.35;;;2.40;71.10;;;;;;1924614;74;21083;-49
2022/03/12 12:34:00;;;;;;;11.78;9.13;;;2.30;72.60;;;;;;1924652;74;21025;-47
2022/03/12 12:36:29;;;;;;;18.17;9.10;;;2.30;72.60;;;;;;1924916;74;20993;-48
2022/03/12 12:39:12;;;;;;;12.13;7.62;;;2.30;73.40;;;;;;1924550;74;21026;-48
2022/03/12 12:42:01;;;;;;;10.68;7.97;;;2.40;70.40;;;;;;1924612;74;21013;-47
2022/03/12 12:44:45;;;;;;;13.55;9.15;;;2.30;71.50;;;;;;1924638;74;21095;-48
2022/03/12 12:47:20;;;;;;;14.43;9.83;;;2.10;71.40;;;;;;1913158;74;21163;-48
2022/03/12 12:49:55;;;;;;;12.60;8.48;;;2.00;71.50;;;;;;1902173;75;21096;-48
2022/03/12 12:52:26;;;;;;;16.05;9.23;;;2.00;72.70;;;;;;1902024;75;21089;-47
2022/03/12 12:54:58;;;;;;;19.20;10.45;;;2.00;73.20;;;;;;1902046;75;21030;-47
2022/03/12 12:57:44;;;;;;;13.30;8.48;;;2.00;73.10;;;;;;1902045;75;20987;-48
2022/03/12 13:00:31;;;;;;;14.05;10.10;;;2.10;71.20;;;;;;1902168;75;21448;-48
2022/03/12 13:03:04;;;;;;;52.62;26.10;;;2.00;73.30;;;;;;1902056;75;20990;-47
2022/03/12 13:05:47;;;;;;;11.35;7.75;;;2.10;74.10;;;;;;1902177;75;21077;-48